sensor_id;sensor_type;location;lat;lon;timestamp;temperature;humidity
20546;DHT22;10431;50.228;9.112;2023-06-22T00:01:55;24.40;99.90
20546;DHT22;10431;50.228;9.112;2023-06-22T00:04:21;24.40;99.90
20546;DHT22;10431;50.228;9.112;2023-06-22T00:06:47;24.30;99.90
20546;DHT22;10431;50.228;9.112;2023-06-22T00:09:14;24.30;99.90
20546;DHT22;10431;50.228;9.112;2023-06-22T00:11:40;24.30;99.90
20546;DHT22;10431;50.228;9.112;2023-06-22T00:14:06;24.20;99.90
20546;DHT22;10431;50.228;9.112;2023-06-22T00:16:32;24.20;99.90
20546;DHT22;10431;50.228;9.112;2023-06-22T00:18:58;24.10;99.90
20546;DHT22;10431;50.228;9.112;2023-06-22T00:21:26;24.10;99.90
20546;DHT22;10431;50.228;9.112;2023-06-22T00:23:52;24.10;99.90
20546;DHT22;10431;50.228;9.112;2023-06-22T00:26:19;24.00;99.90
20546;DHT22;10431;50.228;9.112;2023-06-22T00:28:45;24.00;99.90
20546;DHT22;10431;50.228;9.112;2023-06-22T00:31:11;24.00;99.90
20546;DHT22;10431;50.228;9.112;2023-06-22T00:33:37;24.00;99.90
20546;DHT22;10431;50.228;9.112;2023-06-22T00:36:05;24.00;99.90
20546;DHT22;10431;50.228;9.112;2023-06-22T00:38:33;24.10;99.90
20546;DHT22;10431;50.228;9.112;2023-06-22T00:41:01;24.10;99.90
20546;DHT22;10431;50.228;9.112;2023-06-22T00:43:27;24.10;99.90
20546;DHT22;10431;50.228;9.112;2023-06-22T00:45:54;24.20;99.90
20546;DHT22;10431;50.228;9.112;2023-06-22T00:48:22;24.20;99.90
20546;DHT22;10431;50.228;9.112;2023-06-22T00:50:48;24.20;99.90
20546;DHT22;10431;50.228;9.112;2023-06-22T00:53:16;24.20;99.90
20546;DHT22;10431;50.228;9.112;2023-06-22T00:55:44;24.20;99.90
20546;DHT22;10431;50.228;9.112;2023-06-22T00:58:11;24.20;99.90
20546;DHT22;10431;50.228;9.112;2023-06-22T01:00:38;24.20;99.90
20546;DHT22;10431;50.228;9.112;2023-06-22T01:03:04;24.20;99.90
20546;DHT22;10431;50.228;9.112;2023-06-22T01:05:35;24.20;99.90
20546;DHT22;10431;50.228;9.112;2023-06-22T01:08:05;24.30;99.90
20546;DHT22;10431;50.228;9.112;2023-06-22T01:10:36;24.20;99.90
20546;DHT22;10431;50.228;9.112;2023-06-22T01:13:07;24.20;99.90
20546;DHT22;10431;50.228;9.112;2023-06-22T01:15:42;24.20;99.90
20546;DHT22;10431;50.228;9.112;2023-06-22T01:18:12;24.20;99.90
20546;DHT22;10431;50.228;9.112;2023-06-22T01:20:39;24.20;99.90
20546;DHT22;10431;50.228;9.112;2023-06-22T01:25:46;24.20;99.90
20546;DHT22;10431;50.228;9.112;2023-06-22T01:30:48;24.20;99.90
20546;DHT22;10431;50.228;9.112;2023-06-22T01:33:15;24.20;99.90
20546;DHT22;10431;50.228;9.112;2023-06-22T01:35:41;24.20;99.90
20546;DHT22;10431;50.228;9.112;2023-06-22T01:38:08;24.20;99.90
20546;DHT22;10431;50.228;9.112;2023-06-22T01:40:34;24.20;99.90
20546;DHT22;10431;50.228;9.112;2023-06-22T01:43:01;24.20;99.90
20546;DHT22;10431;50.228;9.112;2023-06-22T01:45:28;24.20;99.90
20546;DHT22;10431;50.228;9.112;2023-06-22T01:47:54;24.20;99.90
20546;DHT22;10431;50.228;9.112;2023-06-22T01:50:20;24.20;99.90
20546;DHT22;10431;50.228;9.112;2023-06-22T01:52:46;24.20;99.90
20546;DHT22;10431;50.228;9.112;2023-06-22T01:55:12;24.20;99.90
20546;DHT22;10431;50.228;9.112;2023-06-22T01:57:39;24.20;99.90
20546;DHT22;10431;50.228;9.112;2023-06-22T02:00:11;24.10;99.90
20546;DHT22;10431;50.228;9.112;2023-06-22T02:02:43;24.00;99.90
20546;DHT22;10431;50.228;9.112;2023-06-22T02:05:11;23.80;99.90
20546;DHT22;10431;50.228;9.112;2023-06-22T02:10:34;23.60;99.90
20546;DHT22;10431;50.228;9.112;2023-06-22T02:13:00;23.70;99.90
20546;DHT22;10431;50.228;9.112;2023-06-22T02:15:26;23.80;99.90
20546;DHT22;10431;50.228;9.112;2023-06-22T02:17:54;23.80;99.90
20546;DHT22;10431;50.228;9.112;2023-06-22T02:20:21;23.80;99.90
20546;DHT22;10431;50.228;9.112;2023-06-22T02:22:49;23.90;99.90
20546;DHT22;10431;50.228;9.112;2023-06-22T02:25:15;23.90;99.90
20546;DHT22;10431;50.228;9.112;2023-06-22T02:27:41;23.90;99.90
20546;DHT22;10431;50.228;9.112;2023-06-22T02:30:07;24.00;99.90
20546;DHT22;10431;50.228;9.112;2023-06-22T02:32:34;24.00;99.90
20546;DHT22;10431;50.228;9.112;2023-06-22T02:35:00;24.00;99.90
20546;DHT22;10431;50.228;9.112;2023-06-22T02:37:32;24.00;99.90
20546;DHT22;10431;50.228;9.112;2023-06-22T02:39:58;23.90;99.90
20546;DHT22;10431;50.228;9.112;2023-06-22T02:42:24;23.90;99.90
20546;DHT22;10431;50.228;9.112;2023-06-22T02:44:50;23.90;99.90
20546;DHT22;10431;50.228;9.112;2023-06-22T02:47:16;23.90;99.90
20546;DHT22;10431;50.228;9.112;2023-06-22T02:49:42;23.90;99.90
20546;DHT22;10431;50.228;9.112;2023-06-22T02:52:10;23.90;99.90
20546;DHT22;10431;50.228;9.112;2023-06-22T02:54:37;23.90;99.90
20546;DHT22;10431;50.228;9.112;2023-06-22T02:57:03;24.00;99.90
20546;DHT22;10431;50.228;9.112;2023-06-22T02:59:30;24.00;99.90
20546;DHT22;10431;50.228;9.112;2023-06-22T03:02:02;24.00;99.90
20546;DHT22;10431;50.228;9.112;2023-06-22T03:04:31;24.00;99.90
20546;DHT22;10431;50.228;9.112;2023-06-22T03:06:57;24.00;99.90
20546;DHT22;10431;50.228;9.112;2023-06-22T03:09:28;24.00;99.90
20546;DHT22;10431;50.228;9.112;2023-06-22T03:11:56;24.00;99.90
20546;DHT22;10431;50.228;9.112;2023-06-22T03:14:24;24.00;99.90
20546;DHT22;10431;50.228;9.112;2023-06-22T03:16:52;24.00;99.90
20546;DHT22;10431;50.228;9.112;2023-06-22T03:19:18;24.00;99.90
20546;DHT22;10431;50.228;9.112;2023-06-22T03:21:45;24.00;99.90
20546;DHT22;10431;50.228;9.112;2023-06-22T03:24:11;24.00;99.90
20546;DHT22;10431;50.228;9.112;2023-06-22T03:26:38;24.00;99.90
20546;DHT22;10431;50.228;9.112;2023-06-22T03:29:04;24.00;99.90
20546;DHT22;10431;50.228;9.112;2023-06-22T03:31:31;24.00;99.90
20546;DHT22;10431;50.228;9.112;2023-06-22T03:33:57;24.00;99.90
20546;DHT22;10431;50.228;9.112;2023-06-22T03:36:23;24.00;99.90
20546;DHT22;10431;50.228;9.112;2023-06-22T03:38:50;24.00;99.90
20546;DHT22;10431;50.228;9.112;2023-06-22T03:41:16;24.00;99.90
20546;DHT22;10431;50.228;9.112;2023-06-22T03:43:43;24.00;99.90
20546;DHT22;10431;50.228;9.112;2023-06-22T03:46:09;23.90;99.90
20546;DHT22;10431;50.228;9.112;2023-06-22T03:48:35;23.90;99.90
20546;DHT22;10431;50.228;9.112;2023-06-22T03:51:01;23.90;99.90
20546;DHT22;10431;50.228;9.112;2023-06-22T03:53:27;23.90;99.90
20546;DHT22;10431;50.228;9.112;2023-06-22T03:55:53;23.90;99.90
20546;DHT22;10431;50.228;9.112;2023-06-22T03:58:19;23.90;99.90
20546;DHT22;10431;50.228;9.112;2023-06-22T04:00:46;23.90;99.90
20546;DHT22;10431;50.228;9.112;2023-06-22T04:03:12;23.90;99.90
20546;DHT22;10431;50.228;9.112;2023-06-22T04:05:39;23.90;99.90
20546;DHT22;10431;50.228;9.112;2023-06-22T04:08:05;23.90;99.90
20546;DHT22;10431;50.228;9.112;2023-06-22T04:10:32;23.90;99.90
20546;DHT22;10431;50.228;9.112;2023-06-22T04:12:58;23.90;99.90
20546;DHT22;10431;50.228;9.112;2023-06-22T04:15:24;23.90;99.90
20546;DHT22;10431;50.228;9.112;2023-06-22T04:17:50;23.80;99.90
20546;DHT22;10431;50.228;9.112;2023-06-22T04:20:16;23.80;99.90
20546;DHT22;10431;50.228;9.112;2023-06-22T04:22:42;23.70;99.90
20546;DHT22;10431;50.228;9.112;2023-06-22T04:25:08;23.70;99.90
20546;DHT22;10431;50.228;9.112;2023-06-22T04:27:34;23.70;99.90
20546;DHT22;10431;50.228;9.112;2023-06-22T04:30:06;23.70;99.90
20546;DHT22;10431;50.228;9.112;2023-06-22T04:32:33;23.70;99.90
20546;DHT22;10431;50.228;9.112;2023-06-22T04:34:59;23.70;99.90
20546;DHT22;10431;50.228;9.112;2023-06-22T04:37:28;23.70;99.90
20546;DHT22;10431;50.228;9.112;2023-06-22T04:39:54;23.70;99.90
20546;DHT22;10431;50.228;9.112;2023-06-22T04:42:21;23.70;99.90
20546;DHT22;10431;50.228;9.112;2023-06-22T04:44:47;23.60;99.90
20546;DHT22;10431;50.228;9.112;2023-06-22T04:47:13;23.20;99.90
20546;DHT22;10431;50.228;9.112;2023-06-22T04:49:39;22.80;99.90
20546;DHT22;10431;50.228;9.112;2023-06-22T04:52:09;22.90;99.90
20546;DHT22;10431;50.228;9.112;2023-06-22T04:54:36;23.10;99.90
20546;DHT22;10431;50.228;9.112;2023-06-22T04:57:02;23.20;99.90
20546;DHT22;10431;50.228;9.112;2023-06-22T04:59:29;23.30;99.90
20546;DHT22;10431;50.228;9.112;2023-06-22T05:02:00;23.40;99.90
20546;DHT22;10431;50.228;9.112;2023-06-22T05:04:28;23.40;99.90
20546;DHT22;10431;50.228;9.112;2023-06-22T05:06:57;23.30;99.90
20546;DHT22;10431;50.228;9.112;2023-06-22T05:09:23;23.20;99.90
20546;DHT22;10431;50.228;9.112;2023-06-22T05:11:50;23.20;99.90
20546;DHT22;10431;50.228;9.112;2023-06-22T05:14:17;23.00;99.90
20546;DHT22;10431;50.228;9.112;2023-06-22T05:16:43;23.20;99.90
20546;DHT22;10431;50.228;9.112;2023-06-22T05:19:09;23.00;99.90
20546;DHT22;10431;50.228;9.112;2023-06-22T05:21:35;23.00;99.90
20546;DHT22;10431;50.228;9.112;2023-06-22T05:24:01;23.10;99.90
20546;DHT22;10431;50.228;9.112;2023-06-22T05:26:29;23.00;99.90
20546;DHT22;10431;50.228;9.112;2023-06-22T05:28:55;23.20;99.90
20546;DHT22;10431;50.228;9.112;2023-06-22T05:31:21;23.30;99.90
20546;DHT22;10431;50.228;9.112;2023-06-22T05:33:47;23.30;99.90
20546;DHT22;10431;50.228;9.112;2023-06-22T05:36:14;23.10;99.90
20546;DHT22;10431;50.228;9.112;2023-06-22T05:38:40;23.10;99.90
20546;DHT22;10431;50.228;9.112;2023-06-22T05:41:06;23.30;99.90
20546;DHT22;10431;50.228;9.112;2023-06-22T05:43:32;23.40;99.90
20546;DHT22;10431;50.228;9.112;2023-06-22T05:45:59;23.50;99.90
20546;DHT22;10431;50.228;9.112;2023-06-22T05:48:25;23.50;99.90
20546;DHT22;10431;50.228;9.112;2023-06-22T05:50:52;23.30;99.90
20546;DHT22;10431;50.228;9.112;2023-06-22T05:53:18;23.40;99.90
20546;DHT22;10431;50.228;9.112;2023-06-22T05:55:44;23.50;99.90
20546;DHT22;10431;50.228;9.112;2023-06-22T05:58:10;23.50;99.90
20546;DHT22;10431;50.228;9.112;2023-06-22T06:02:56;24.00;99.90
20546;DHT22;10431;50.228;9.112;2023-06-22T06:05:23;24.00;99.90
20546;DHT22;10431;50.228;9.112;2023-06-22T06:07:51;24.00;99.90
20546;DHT22;10431;50.228;9.112;2023-06-22T06:10:17;24.00;99.90
20546;DHT22;10431;50.228;9.112;2023-06-22T06:12:43;24.00;99.90
20546;DHT22;10431;50.228;9.112;2023-06-22T06:15:09;24.00;99.90
20546;DHT22;10431;50.228;9.112;2023-06-22T06:17:35;24.00;99.90
20546;DHT22;10431;50.228;9.112;2023-06-22T06:20:01;24.00;99.90
20546;DHT22;10431;50.228;9.112;2023-06-22T06:22:27;24.00;99.90
20546;DHT22;10431;50.228;9.112;2023-06-22T06:24:53;24.10;99.90
20546;DHT22;10431;50.228;9.112;2023-06-22T06:27:19;24.10;99.90
20546;DHT22;10431;50.228;9.112;2023-06-22T06:29:45;24.10;99.90
20546;DHT22;10431;50.228;9.112;2023-06-22T06:32:13;24.10;99.90
20546;DHT22;10431;50.228;9.112;2023-06-22T06:34:40;24.10;99.90
20546;DHT22;10431;50.228;9.112;2023-06-22T06:37:06;24.20;99.90
20546;DHT22;10431;50.228;9.112;2023-06-22T06:39:32;24.20;99.90
20546;DHT22;10431;50.228;9.112;2023-06-22T06:41:58;24.20;99.90
20546;DHT22;10431;50.228;9.112;2023-06-22T06:44:24;24.20;99.90
20546;DHT22;10431;50.228;9.112;2023-06-22T06:46:50;24.20;99.90
20546;DHT22;10431;50.228;9.112;2023-06-22T06:49:16;24.20;99.90
20546;DHT22;10431;50.228;9.112;2023-06-22T06:51:42;24.20;99.90
20546;DHT22;10431;50.228;9.112;2023-06-22T06:54:08;24.30;99.90
20546;DHT22;10431;50.228;9.112;2023-06-22T06:56:34;24.30;99.90
20546;DHT22;10431;50.228;9.112;2023-06-22T06:59:00;24.30;99.90
20546;DHT22;10431;50.228;9.112;2023-06-22T07:01:26;24.40;99.90
20546;DHT22;10431;50.228;9.112;2023-06-22T07:03:52;24.40;99.90
20546;DHT22;10431;50.228;9.112;2023-06-22T07:06:19;24.40;99.90
20546;DHT22;10431;50.228;9.112;2023-06-22T07:08:45;24.30;99.90
20546;DHT22;10431;50.228;9.112;2023-06-22T07:11:11;24.40;99.90
20546;DHT22;10431;50.228;9.112;2023-06-22T07:13:37;24.40;99.90
20546;DHT22;10431;50.228;9.112;2023-06-22T07:16:04;24.40;99.90
20546;DHT22;10431;50.228;9.112;2023-06-22T07:18:30;24.30;99.90
20546;DHT22;10431;50.228;9.112;2023-06-22T07:20:56;24.30;99.90
20546;DHT22;10431;50.228;9.112;2023-06-22T07:23:22;24.30;99.90
20546;DHT22;10431;50.228;9.112;2023-06-22T07:25:48;24.30;99.90
20546;DHT22;10431;50.228;9.112;2023-06-22T07:28:14;24.30;99.90
20546;DHT22;10431;50.228;9.112;2023-06-22T07:30:40;24.30;99.90
20546;DHT22;10431;50.228;9.112;2023-06-22T07:33:06;24.30;99.90
20546;DHT22;10431;50.228;9.112;2023-06-22T07:35:34;24.30;99.90
20546;DHT22;10431;50.228;9.112;2023-06-22T07:38:00;24.30;99.90
20546;DHT22;10431;50.228;9.112;2023-06-22T07:40:26;24.40;99.90
20546;DHT22;10431;50.228;9.112;2023-06-22T07:42:52;24.40;99.90
20546;DHT22;10431;50.228;9.112;2023-06-22T07:45:18;24.50;99.90
20546;DHT22;10431;50.228;9.112;2023-06-22T07:47:44;24.60;99.90
20546;DHT22;10431;50.228;9.112;2023-06-22T07:50:10;24.60;99.90
20546;DHT22;10431;50.228;9.112;2023-06-22T07:52:36;24.60;99.90
20546;DHT22;10431;50.228;9.112;2023-06-22T07:55:03;24.60;99.90
20546;DHT22;10431;50.228;9.112;2023-06-22T07:57:29;24.70;99.90
20546;DHT22;10431;50.228;9.112;2023-06-22T08:00:03;24.80;99.90
20546;DHT22;10431;50.228;9.112;2023-06-22T08:02:43;24.90;99.90
20546;DHT22;10431;50.228;9.112;2023-06-22T08:05:09;24.80;99.90
20546;DHT22;10431;50.228;9.112;2023-06-22T08:07:36;24.90;99.90
20546;DHT22;10431;50.228;9.112;2023-06-22T08:10:04;24.90;99.90
20546;DHT22;10431;50.228;9.112;2023-06-22T08:12:30;24.90;99.90
20546;DHT22;10431;50.228;9.112;2023-06-22T08:14:56;24.90;99.90
20546;DHT22;10431;50.228;9.112;2023-06-22T08:17:23;24.90;99.90
20546;DHT22;10431;50.228;9.112;2023-06-22T08:19:49;25.00;99.90
20546;DHT22;10431;50.228;9.112;2023-06-22T08:22:15;25.00;99.90
20546;DHT22;10431;50.228;9.112;2023-06-22T08:24:42;24.90;99.90
20546;DHT22;10431;50.228;9.112;2023-06-22T08:27:08;24.90;99.90
20546;DHT22;10431;50.228;9.112;2023-06-22T08:29:40;24.80;99.90
20546;DHT22;10431;50.228;9.112;2023-06-22T08:32:11;24.80;99.90
20546;DHT22;10431;50.228;9.112;2023-06-22T08:34:37;24.70;99.90
20546;DHT22;10431;50.228;9.112;2023-06-22T08:37:10;24.70;99.90
20546;DHT22;10431;50.228;9.112;2023-06-22T08:39:36;24.70;99.90
20546;DHT22;10431;50.228;9.112;2023-06-22T08:42:02;24.70;99.90
20546;DHT22;10431;50.228;9.112;2023-06-22T08:44:28;24.60;99.90
20546;DHT22;10431;50.228;9.112;2023-06-22T08:46:54;24.60;99.90
20546;DHT22;10431;50.228;9.112;2023-06-22T08:49:20;24.60;99.90
20546;DHT22;10431;50.228;9.112;2023-06-22T08:51:46;24.60;99.90
20546;DHT22;10431;50.228;9.112;2023-06-22T08:54:15;24.60;99.90
20546;DHT22;10431;50.228;9.112;2023-06-22T08:56:41;24.60;99.90
20546;DHT22;10431;50.228;9.112;2023-06-22T08:59:09;24.60;99.90
20546;DHT22;10431;50.228;9.112;2023-06-22T09:01:36;24.60;99.90
20546;DHT22;10431;50.228;9.112;2023-06-22T09:04:02;24.60;99.90
20546;DHT22;10431;50.228;9.112;2023-06-22T09:06:29;24.60;99.90
20546;DHT22;10431;50.228;9.112;2023-06-22T09:08:57;24.60;99.90
20546;DHT22;10431;50.228;9.112;2023-06-22T09:11:25;24.60;99.90
20546;DHT22;10431;50.228;9.112;2023-06-22T09:13:51;24.60;99.90
20546;DHT22;10431;50.228;9.112;2023-06-22T09:16:19;24.60;99.90
20546;DHT22;10431;50.228;9.112;2023-06-22T09:18:48;24.60;99.90
20546;DHT22;10431;50.228;9.112;2023-06-22T09:21:14;24.60;99.90
20546;DHT22;10431;50.228;9.112;2023-06-22T09:23:40;24.70;99.90
20546;DHT22;10431;50.228;9.112;2023-06-22T09:26:06;24.70;99.90
20546;DHT22;10431;50.228;9.112;2023-06-22T09:28:32;24.60;99.90
20546;DHT22;10431;50.228;9.112;2023-06-22T09:30:59;24.60;99.90
20546;DHT22;10431;50.228;9.112;2023-06-22T09:33:25;24.60;99.90
20546;DHT22;10431;50.228;9.112;2023-06-22T09:35:51;24.60;99.90
20546;DHT22;10431;50.228;9.112;2023-06-22T09:38:17;24.60;99.90
20546;DHT22;10431;50.228;9.112;2023-06-22T09:40:43;24.60;99.90
20546;DHT22;10431;50.228;9.112;2023-06-22T09:43:09;24.60;99.90
20546;DHT22;10431;50.228;9.112;2023-06-22T09:45:35;24.60;99.90
20546;DHT22;10431;50.228;9.112;2023-06-22T09:48:01;24.60;99.90
20546;DHT22;10431;50.228;9.112;2023-06-22T09:50:27;24.60;99.90
20546;DHT22;10431;50.228;9.112;2023-06-22T09:52:53;24.80;99.90
20546;DHT22;10431;50.228;9.112;2023-06-22T09:55:20;24.90;99.90
20546;DHT22;10431;50.228;9.112;2023-06-22T09:57:46;24.90;99.90
20546;DHT22;10431;50.228;9.112;2023-06-22T10:00:13;24.80;99.90
20546;DHT22;10431;50.228;9.112;2023-06-22T10:02:39;24.80;99.90
20546;DHT22;10431;50.228;9.112;2023-06-22T10:05:06;24.80;99.90
20546;DHT22;10431;50.228;9.112;2023-06-22T10:07:33;24.70;99.90
20546;DHT22;10431;50.228;9.112;2023-06-22T10:09:59;24.70;99.90
20546;DHT22;10431;50.228;9.112;2023-06-22T10:12:27;24.70;99.90
20546;DHT22;10431;50.228;9.112;2023-06-22T10:14:53;24.70;99.90
20546;DHT22;10431;50.228;9.112;2023-06-22T10:17:19;24.70;99.90
20546;DHT22;10431;50.228;9.112;2023-06-22T10:19:45;24.70;99.90
20546;DHT22;10431;50.228;9.112;2023-06-22T10:22:11;24.70;99.90
20546;DHT22;10431;50.228;9.112;2023-06-22T10:24:37;24.70;99.90
20546;DHT22;10431;50.228;9.112;2023-06-22T10:27:04;24.70;99.90
20546;DHT22;10431;50.228;9.112;2023-06-22T10:29:30;24.70;99.90
20546;DHT22;10431;50.228;9.112;2023-06-22T10:31:56;24.70;99.90
20546;DHT22;10431;50.228;9.112;2023-06-22T10:34:22;24.70;99.90
20546;DHT22;10431;50.228;9.112;2023-06-22T10:36:48;25.00;99.90
20546;DHT22;10431;50.228;9.112;2023-06-22T10:39:14;25.10;99.90
20546;DHT22;10431;50.228;9.112;2023-06-22T10:41:41;25.10;99.90
20546;DHT22;10431;50.228;9.112;2023-06-22T10:44:06;25.00;99.90
20546;DHT22;10431;50.228;9.112;2023-06-22T10:46:32;24.90;99.90
20546;DHT22;10431;50.228;9.112;2023-06-22T10:48:58;24.90;99.90
20546;DHT22;10431;50.228;9.112;2023-06-22T10:51:25;24.90;99.90
20546;DHT22;10431;50.228;9.112;2023-06-22T10:53:51;24.90;99.90
20546;DHT22;10431;50.228;9.112;2023-06-22T10:56:17;24.90;99.90
20546;DHT22;10431;50.228;9.112;2023-06-22T10:58:44;24.90;99.90
20546;DHT22;10431;50.228;9.112;2023-06-22T11:01:10;24.90;99.90
20546;DHT22;10431;50.228;9.112;2023-06-22T11:03:36;24.90;99.90
20546;DHT22;10431;50.228;9.112;2023-06-22T11:06:02;24.90;99.90
20546;DHT22;10431;50.228;9.112;2023-06-22T11:08:28;24.90;99.90
20546;DHT22;10431;50.228;9.112;2023-06-22T11:10:54;24.90;99.90
20546;DHT22;10431;50.228;9.112;2023-06-22T11:13:20;24.90;99.90
20546;DHT22;10431;50.228;9.112;2023-06-22T11:15:46;24.90;99.90
20546;DHT22;10431;50.228;9.112;2023-06-22T11:18:12;24.80;99.90
20546;DHT22;10431;50.228;9.112;2023-06-22T11:20:38;24.90;99.90
20546;DHT22;10431;50.228;9.112;2023-06-22T11:23:06;24.90;99.90
20546;DHT22;10431;50.228;9.112;2023-06-22T11:25:33;24.90;99.90
20546;DHT22;10431;50.228;9.112;2023-06-22T11:28:03;24.90;99.90
20546;DHT22;10431;50.228;9.112;2023-06-22T11:30:29;24.90;99.90
20546;DHT22;10431;50.228;9.112;2023-06-22T11:32:59;24.90;99.90
20546;DHT22;10431;50.228;9.112;2023-06-22T11:35:25;24.90;99.90
20546;DHT22;10431;50.228;9.112;2023-06-22T11:37:51;24.90;99.90
20546;DHT22;10431;50.228;9.112;2023-06-22T11:40:17;25.20;99.90
20546;DHT22;10431;50.228;9.112;2023-06-22T11:42:43;25.30;99.90
20546;DHT22;10431;50.228;9.112;2023-06-22T11:45:09;25.30;99.90
20546;DHT22;10431;50.228;9.112;2023-06-22T11:47:35;25.20;99.90
20546;DHT22;10431;50.228;9.112;2023-06-22T11:50:02;25.10;99.90
20546;DHT22;10431;50.228;9.112;2023-06-22T11:52:28;25.10;99.90
20546;DHT22;10431;50.228;9.112;2023-06-22T11:54:54;25.00;99.90
20546;DHT22;10431;50.228;9.112;2023-06-22T11:57:20;25.00;99.90
20546;DHT22;10431;50.228;9.112;2023-06-22T11:59:46;25.00;99.90
20546;DHT22;10431;50.228;9.112;2023-06-22T12:02:12;25.00;99.90
20546;DHT22;10431;50.228;9.112;2023-06-22T12:04:38;24.90;99.90
20546;DHT22;10431;50.228;9.112;2023-06-22T12:07:04;24.90;99.90
20546;DHT22;10431;50.228;9.112;2023-06-22T12:09:30;24.90;99.90
20546;DHT22;10431;50.228;9.112;2023-06-22T12:11:56;25.00;99.90
20546;DHT22;10431;50.228;9.112;2023-06-22T12:14:22;25.00;99.90
20546;DHT22;10431;50.228;9.112;2023-06-22T12:16:48;25.00;99.90
20546;DHT22;10431;50.228;9.112;2023-06-22T12:19:14;24.90;99.90
20546;DHT22;10431;50.228;9.112;2023-06-22T12:21:40;25.10;99.90
20546;DHT22;10431;50.228;9.112;2023-06-22T12:24:06;25.20;99.90
20546;DHT22;10431;50.228;9.112;2023-06-22T12:26:32;25.40;99.90
20546;DHT22;10431;50.228;9.112;2023-06-22T12:28:58;25.60;99.90
20546;DHT22;10431;50.228;9.112;2023-06-22T12:31:24;25.80;99.90
20546;DHT22;10431;50.228;9.112;2023-06-22T12:33:50;25.90;99.90
20546;DHT22;10431;50.228;9.112;2023-06-22T12:36:16;25.90;99.90
20546;DHT22;10431;50.228;9.112;2023-06-22T12:38:42;25.70;99.90
20546;DHT22;10431;50.228;9.112;2023-06-22T12:41:08;25.60;99.90
20546;DHT22;10431;50.228;9.112;2023-06-22T12:43:34;25.40;99.90
20546;DHT22;10431;50.228;9.112;2023-06-22T12:46:00;25.40;99.90
20546;DHT22;10431;50.228;9.112;2023-06-22T12:48:26;25.30;99.90
20546;DHT22;10431;50.228;9.112;2023-06-22T12:50:52;25.20;99.90
20546;DHT22;10431;50.228;9.112;2023-06-22T12:53:18;25.20;99.90
20546;DHT22;10431;50.228;9.112;2023-06-22T12:55:44;25.20;99.90
20546;DHT22;10431;50.228;9.112;2023-06-22T12:58:10;25.20;99.90
20546;DHT22;10431;50.228;9.112;2023-06-22T13:00:37;25.20;99.90
20546;DHT22;10431;50.228;9.112;2023-06-22T13:03:03;25.30;99.90
20546;DHT22;10431;50.228;9.112;2023-06-22T13:05:29;25.80;99.90
20546;DHT22;10431;50.228;9.112;2023-06-22T13:07:56;25.60;99.90
20546;DHT22;10431;50.228;9.112;2023-06-22T13:10:22;25.60;99.90
20546;DHT22;10431;50.228;9.112;2023-06-22T13:12:48;25.60;99.90
20546;DHT22;10431;50.228;9.112;2023-06-22T13:15:14;25.50;99.90
20546;DHT22;10431;50.228;9.112;2023-06-22T13:17:40;25.40;99.90
20546;DHT22;10431;50.228;9.112;2023-06-22T13:20:06;25.40;99.90
20546;DHT22;10431;50.228;9.112;2023-06-22T13:22:33;25.30;99.90
20546;DHT22;10431;50.228;9.112;2023-06-22T13:25:05;25.30;99.90
20546;DHT22;10431;50.228;9.112;2023-06-22T13:27:32;25.30;99.90
20546;DHT22;10431;50.228;9.112;2023-06-22T13:29:58;25.30;99.90
20546;DHT22;10431;50.228;9.112;2023-06-22T13:32:24;25.30;99.90
20546;DHT22;10431;50.228;9.112;2023-06-22T13:34:50;25.30;99.90
20546;DHT22;10431;50.228;9.112;2023-06-22T13:37:17;25.30;99.90
20546;DHT22;10431;50.228;9.112;2023-06-22T13:39:43;25.20;99.90
20546;DHT22;10431;50.228;9.112;2023-06-22T13:42:09;25.30;99.90
20546;DHT22;10431;50.228;9.112;2023-06-22T13:44:35;25.30;99.90
20546;DHT22;10431;50.228;9.112;2023-06-22T13:47:01;25.30;99.90
20546;DHT22;10431;50.228;9.112;2023-06-22T13:49:27;25.30;99.90
20546;DHT22;10431;50.228;9.112;2023-06-22T13:51:53;25.30;99.90
20546;DHT22;10431;50.228;9.112;2023-06-22T13:54:19;25.30;99.90
20546;DHT22;10431;50.228;9.112;2023-06-22T13:56:45;25.30;99.90
20546;DHT22;10431;50.228;9.112;2023-06-22T13:59:11;25.30;99.90
20546;DHT22;10431;50.228;9.112;2023-06-22T14:01:37;25.40;99.90
20546;DHT22;10431;50.228;9.112;2023-06-22T14:04:05;25.50;99.90
20546;DHT22;10431;50.228;9.112;2023-06-22T14:06:31;25.50;99.90
20546;DHT22;10431;50.228;9.112;2023-06-22T14:08:57;25.50;99.90
20546;DHT22;10431;50.228;9.112;2023-06-22T14:11:24;25.40;99.90
20546;DHT22;10431;50.228;9.112;2023-06-22T14:13:50;25.40;99.90
20546;DHT22;10431;50.228;9.112;2023-06-22T14:16:16;25.30;99.90
20546;DHT22;10431;50.228;9.112;2023-06-22T14:18:42;25.30;99.90
20546;DHT22;10431;50.228;9.112;2023-06-22T14:21:08;25.40;99.90
20546;DHT22;10431;50.228;9.112;2023-06-22T14:23:34;25.30;99.90
20546;DHT22;10431;50.228;9.112;2023-06-22T14:26:00;25.30;99.90
20546;DHT22;10431;50.228;9.112;2023-06-22T14:28:26;25.30;99.90
20546;DHT22;10431;50.228;9.112;2023-06-22T14:30:52;25.30;99.90
20546;DHT22;10431;50.228;9.112;2023-06-22T14:33:18;25.30;99.90
20546;DHT22;10431;50.228;9.112;2023-06-22T14:35:44;25.30;99.90
20546;DHT22;10431;50.228;9.112;2023-06-22T14:38:10;25.30;99.90
20546;DHT22;10431;50.228;9.112;2023-06-22T14:40:35;25.30;99.90
20546;DHT22;10431;50.228;9.112;2023-06-22T14:43:01;25.40;99.90
20546;DHT22;10431;50.228;9.112;2023-06-22T14:45:27;25.40;99.90
20546;DHT22;10431;50.228;9.112;2023-06-22T14:47:53;25.50;99.90
20546;DHT22;10431;50.228;9.112;2023-06-22T14:50:19;25.40;99.90
20546;DHT22;10431;50.228;9.112;2023-06-22T14:52:45;25.40;99.90
20546;DHT22;10431;50.228;9.112;2023-06-22T14:55:11;25.40;99.90
20546;DHT22;10431;50.228;9.112;2023-06-22T14:57:37;25.40;99.90
20546;DHT22;10431;50.228;9.112;2023-06-22T15:00:04;25.30;99.90
20546;DHT22;10431;50.228;9.112;2023-06-22T15:02:32;25.30;99.90
20546;DHT22;10431;50.228;9.112;2023-06-22T15:04:58;25.30;99.90
20546;DHT22;10431;50.228;9.112;2023-06-22T15:07:24;25.30;99.90
20546;DHT22;10431;50.228;9.112;2023-06-22T15:09:50;25.30;99.90
20546;DHT22;10431;50.228;9.112;2023-06-22T15:12:16;25.30;99.90
20546;DHT22;10431;50.228;9.112;2023-06-22T15:14:42;25.30;99.90
20546;DHT22;10431;50.228;9.112;2023-06-22T15:17:08;25.30;99.90
20546;DHT22;10431;50.228;9.112;2023-06-22T15:19:37;25.30;99.90
20546;DHT22;10431;50.228;9.112;2023-06-22T15:22:04;25.30;99.90
20546;DHT22;10431;50.228;9.112;2023-06-22T15:24:30;25.30;99.90
20546;DHT22;10431;50.228;9.112;2023-06-22T15:26:56;25.30;99.90
20546;DHT22;10431;50.228;9.112;2023-06-22T15:29:23;25.30;99.90
20546;DHT22;10431;50.228;9.112;2023-06-22T15:31:48;25.30;99.90
20546;DHT22;10431;50.228;9.112;2023-06-22T15:34:14;25.30;99.90
20546;DHT22;10431;50.228;9.112;2023-06-22T15:36:40;25.30;99.90